Valladolid, YUC, Mexico
Current Conditions -  °F | °C
As of 9:43 PM on Tuesday 25 Nov 2014 (Local Time) from MMCZ Reporting Station
Light Rain Light Rain  
Wind Chill: 72°   Ceiling: 1500
Heat Index: 72°   Visibility: 7mi
Dew Point: 72°   Wind: 8mph
Humidity: 100%   Direction: 340°NNW
Pressure: 29.99"   Gusts: NA
Location:  20.69°N, 88.21°W
Report Text: MMCZ 260343Z 34007KT 7SM -RA BKN015 22/22 A2999 RMK 60065 8/400 -RA INTMT RTS
Loading
Personal Weather Stations






























Interactive Weather Map New forecast layout! Learn more

10-Day Weather Forecast

Advertisements
Track Severe Weather on mobile